EDT,Max TemperatureF,Mean TemperatureF,Min TemperatureF,Max Dew PointF,MeanDew PointF,Min DewpointF,Max Humidity, Mean Humidity, Min Humidity, Max Sea Level PressureIn, Mean Sea Level PressureIn, Min Sea Level PressureIn, Max VisibilityMiles, Mean VisibilityMiles, Min VisibilityMiles, Max Wind SpeedMPH, Mean Wind SpeedMPH, Max Gust SpeedMPH,PrecipitationIn, CloudCover, Events, WindDirDegrees
2012-10-1,58,53,48,59,51,47,96,87,77,29.71,29.60,29.54,10,10,3,16,6,21,0.09,6,Rain,190
2012-10-2,72,60,48,50,48,45,93,66,38,30.00,29.86,29.73,10,10,10,14,5,18,0.00,1,,249
2012-10-3,67,56,44,49,43,39,93,65,37,30.24,30.13,30.01,10,8,0,13,5,16,0.00,0,Fog,339
2012-10-4,60,49,38,50,44,37,96,76,55,30.26,30.17,30.02,10,9,6,8,4,10,0.37,4,Rain,116
2012-10-5,63,57,51,56,53,48,96,87,78,30.01,29.91,29.82,10,8,2,10,7,14,0.10,8,Rain,175
2012-10-6,64,54,43,59,54,42,100,92,84,29.82,29.71,29.55,10,6,1,23,8,30,0.39,7,Rain-Thunderstorm,189
2012-10-7,54,47,39,43,39,36,100,77,54,30.05,29.94,29.73,10,10,10,16,6,20,T,4,,249
2012-10-8,47,39,30,38,35,30,100,79,58,30.36,30.15,30.00,10,9,4,13,5,17,0.21,6,Rain,269
2012-10-9,54,41,28,34,28,24,92,62,32,30.43,30.33,30.21,10,10,9,13,3,17,0.00,0,,162
2012-10-10,53,42,30,52,41,27,96,89,82,30.20,29.91,29.54,10,6,1,18,5,24,0.78,7,Rain,137
2012-10-11,50,42,34,48,36,25,93,71,49,29.97,29.70,29.50,10,9,2,24,9,35,0.15,6,Rain,259
2012-10-12,43,38,32,38,30,22,92,71,49,30.14,29.93,29.80,10,10,4,22,9,35,0.08,6,Rain-Snow,277
2012-10-13,44,36,28,24,21,19,78,58,37,30.27,30.22,30.16,10,10,2,18,6,24,0.00,2,,270
2012-10-14,39,35,30,37,32,24,100,85,69,30.23,30.11,29.96,10,7,1,13,4,15,0.18,8,Rain-Snow,138
2012-10-15,59,49,38,58,45,36,100,96,92,29.96,29.71,29.53,10,3,0,13,6,18,0.42,8,Fog-Rain,133
2012-10-16,55,46,36,54,44,34,93,88,83,29.65,29.53,29.43,10,8,2,21,5,28,0.48,8,Rain,269
2012-10-17,51,41,30,34,31,28,89,69,48,29.99,29.86,29.69,10,10,10,14,6,17,0.00,1,,296
2012-10-18,57,43,29,37,33,27,92,68,43,30.15,30.11,30.00,10,10,4,12,4,14,0.00,0,,154
2012-10-19,58,50,41,48,44,37,96,79,61,30.19,30.13,29.97,10,9,4,16,8,22,0.11,6,Rain,151
2012-10-20,63,57,50,61,58,48,100,97,93,29.94,29.71,29.57,10,9,2,21,10,26,0.64,8,Rain,153
2012-10-21,60,53,46,59,46,39,93,76,59,29.67,29.62,29.57,10,10,7,18,8,24,0.01,7,Rain,244
2012-10-22,55,48,40,40,35,28,83,62,41,29.83,29.66,29.56,10,10,10,24,13,37,0.00,4,,281
2012-10-23,50,41,32,31,29,27,75,59,42,30.08,29.97,29.85,10,10,10,23,12,30,0.00,4,,319
2012-10-24,44,36,28,27,25,23,85,65,45,30.26,30.16,30.08,10,10,10,21,8,29,0.00,1,,312
2012-10-25,51,38,25,28,24,19,85,57,28,30.36,30.29,30.25,10,10,2,7,2,9,0.00,0,,332
2012-10-26,61,45,29,38,31,26,85,59,32,30.26,30.20,30.12,10,10,10,8,3,10,0.00,2,,125
2012-10-27,66,52,38,49,41,34,86,71,55,30.16,30.13,30.09,10,10,9,7,2,9,0.00,0,,41
2012-10-28,57,49,40,46,42,35,89,78,66,30.19,30.14,30.08,10,10,10,15,7,17,0.00,6,,24
2012-10-29,62,57,51,52,49,46,89,79,69,30.06,30.01,29.97,10,10,10,20,12,29,0.00,8,,69
2012-10-30,61,57,53,55,52,48,93,85,77,29.96,29.90,29.83,10,9,4,23,13,31,0.43,8,Rain,85
2012-10-31,63,60,56,57,55,53,100,93,86,29.80,29.65,29.47,10,9,2,22,9,31,0.48,8,Rain-Thunderstorm,99